Time;durP1;ratioP1;P1;durP2;ratioP2;P2;SDS_P1;SDS_P2;PMS_P1;PMS_P2;Temp;Humidity;BMP_temperature;BMP_pressure;BME280_temperature;BME280_humidity;BME280_pressure;Samples;Min_cycle;Max_cycle;Signal;HPM_P1;HPM_P2
2023/03/03 00:02:21;;;;;;;36.22;17.58;;;;;;;;;;5050621;28;20029;-86
2023/03/03 00:04:46;;;;;;;32.80;17.40;;;;;;;;;;5035082;28;20559;-87
2023/03/03 00:07:14;;;;;;;38.55;18.52;;;;;;;;;;5037821;28;20047;-86
2023/03/03 00:09:39;;;;;;;32.53;17.45;;;;;;;;;;5046533;28;20045;-86
2023/03/03 00:12:23;;;;;;;37.20;18.95;;;;;;;;;;5037962;28;20033;-87
2023/03/03 00:14:48;;;;;;;41.45;18.92;;;;;;;;;;5035606;28;20123;-85
2023/03/03 00:17:28;;;;;;;39.72;19.00;;;;;;;;;;5036574;28;20056;-86
2023/03/03 00:19:54;;;;;;;37.15;18.98;;;;;;;;;;5034866;28;20437;-85
2023/03/03 00:22:34;;;;;;;35.85;18.40;;;;;;;;;;5037685;28;20041;-88
2023/03/03 00:25:30;;;;;;;35.55;17.88;;;;;;;;;;5036948;28;20033;-87
2023/03/03 00:28:06;;;;;;;38.47;19.58;;;;;;;;;;5035316;28;20593;-88
2023/03/03 00:30:31;;;;;;;39.95;19.05;;;;;;;;;;5035810;28;20041;-87
2023/03/03 00:32:57;;;;;;;41.38;19.00;;;;;;;;;;5035316;28;20029;-87
2023/03/03 00:35:37;;;;;;;39.42;19.58;;;;;;;;;;5035055;28;20408;-89
2023/03/03 00:38:14;;;;;;;37.80;19.40;;;;;;;;;;5035949;28;20056;-88
2023/03/03 00:40:40;;;;;;;39.58;18.70;;;;;;;;;;5036044;28;20029;-88
2023/03/03 00:43:26;;;;;;;40.53;18.92;;;;;;;;;;5037139;28;20033;-88
2023/03/03 00:45:54;;;;;;;39.45;18.35;;;;;;;;;;5035368;28;20048;-86
2023/03/03 00:48:30;;;;;;;40.95;19.15;;;;;;;;;;5038591;28;20115;-87
2023/03/03 00:51:00;;;;;;;41.85;20.05;;;;;;;;;;5037677;28;20052;-87
2023/03/03 00:53:30;;;;;;;38.08;18.80;;;;;;;;;;5036455;28;20026;-87
2023/03/03 00:55:56;;;;;;;36.30;18.58;;;;;;;;;;5059925;23;20084;-81
2023/03/03 00:58:23;;;;;;;38.22;19.65;;;;;;;;;;5020387;28;20041;-81
2023/03/03 01:00:51;;;;;;;39.70;18.73;;;;;;;;;;5019298;28;20037;-81
2023/03/03 01:03:23;;;;;;;41.55;20.05;;;;;;;;;;5018613;28;20040;-81
2023/03/03 01:05:50;;;;;;;37.22;17.90;;;;;;;;;;5017437;28;20029;-81
2023/03/03 01:08:16;;;;;;;36.40;18.30;;;;;;;;;;5036524;28;20104;-81
2023/03/03 01:10:51;;;;;;;40.05;19.02;;;;;;;;;;5034972;28;20076;-81
2023/03/03 01:13:18;;;;;;;33.47;17.27;;;;;;;;;;5036229;28;20067;-81
2023/03/03 01:15:43;;;;;;;33.08;17.20;;;;;;;;;;5034454;28;20120;-81
2023/03/03 01:18:10;;;;;;;39.83;18.27;;;;;;;;;;5034996;28;20119;-80
2023/03/03 01:20:36;;;;;;;36.38;18.30;;;;;;;;;;5038688;28;20551;-81
2023/03/03 01:23:02;;;;;;;37.42;17.90;;;;;;;;;;5035796;28;20026;-80
2023/03/03 01:25:27;;;;;;;32.30;17.20;;;;;;;;;;5039336;28;20120;-81
2023/03/03 01:27:53;;;;;;;35.90;18.35;;;;;;;;;;5040674;28;20485;-80
2023/03/03 01:30:19;;;;;;;36.17;18.15;;;;;;;;;;5040582;28;20037;-79
2023/03/03 01:32:44;;;;;;;36.58;18.80;;;;;;;;;;5038591;28;20038;-80
2023/03/03 01:35:10;;;;;;;35.53;17.60;;;;;;;;;;5039535;28;20062;-81
2023/03/03 01:37:36;;;;;;;36.08;17.35;;;;;;;;;;5041018;28;20088;-80
2023/03/03 01:40:04;;;;;;;35.42;17.98;;;;;;;;;;5027419;28;20032;-80
2023/03/03 01:42:30;;;;;;;39.25;18.88;;;;;;;;;;5044888;28;20030;-80
2023/03/03 01:45:13;;;;;;;35.63;17.67;;;;;;;;;;5043706;28;20063;-80
2023/03/03 01:47:44;;;;;;;37.03;17.95;;;;;;;;;;5044278;28;20048;-80
2023/03/03 01:50:13;;;;;;;33.95;18.08;;;;;;;;;;5044427;28;20045;-80
2023/03/03 01:52:43;;;;;;;36.78;18.83;;;;;;;;;;5043119;28;20041;-80
2023/03/03 01:55:14;;;;;;;34.55;17.42;;;;;;;;;;5042807;28;20052;-80
2023/03/03 01:57:45;;;;;;;36.00;18.02;;;;;;;;;;5042854;28;20041;-80
2023/03/03 02:00:12;;;;;;;34.97;17.92;;;;;;;;;;5042539;28;20034;-80
2023/03/03 02:02:42;;;;;;;35.70;18.55;;;;;;;;;;5043180;28;20064;-80
2023/03/03 02:05:08;;;;;;;43.58;19.63;;;;;;;;;;5042823;28;20025;-80
2023/03/03 02:07:35;;;;;;;34.83;17.55;;;;;;;;;;5043645;28;20032;-81
2023/03/03 02:10:09;;;;;;;35.15;18.63;;;;;;;;;;5041718;28;20128;-81
2023/03/03 02:12:55;;;;;;;37.15;19.05;;;;;;;;;;5044693;28;20034;-80
2023/03/03 02:15:34;;;;;;;39.67;18.05;;;;;;;;;;5042677;28;20045;-80
2023/03/03 02:18:26;;;;;;;35.00;17.85;;;;;;;;;;5042869;28;20037;-81
2023/03/03 02:21:11;;;;;;;35.22;16.25;;;;;;;;;;5037676;28;20064;-80
2023/03/03 02:24:01;;;;;;;33.45;17.30;;;;;;;;;;5041999;28;20132;-80
2023/03/03 02:26:28;;;;;;;35.33;16.38;;;;;;;;;;5044479;28;20033;-80
2023/03/03 02:28:59;;;;;;;34.33;17.43;;;;;;;;;;5042856;28;20029;-80
2023/03/03 02:31:28;;;;;;;31.08;15.88;;;;;;;;;;5041467;28;20037;-80
2023/03/03 02:33:54;;;;;;;33.17;16.73;;;;;;;;;;5042949;28;20034;-80
2023/03/03 02:36:23;;;;;;;28.38;15.85;;;;;;;;;;5040220;28;20078;-80
2023/03/03 02:39:01;;;;;;;31.65;16.38;;;;;;;;;;5041944;28;20494;-80
2023/03/03 02:41:45;;;;;;;31.15;15.90;;;;;;;;;;5039581;28;20102;-81
2023/03/03 02:44:14;;;;;;;37.83;17.48;;;;;;;;;;5037642;28;20035;-81
2023/03/03 02:46:43;;;;;;;30.45;16.40;;;;;;;;;;5037729;28;20033;-81
2023/03/03 02:49:12;;;;;;;31.73;16.48;;;;;;;;;;5037583;28;20045;-81
2023/03/03 02:51:38;;;;;;;32.97;16.40;;;;;;;;;;5036908;28;20033;-81
2023/03/03 02:54:05;;;;;;;36.38;18.38;;;;;;;;;;5020023;28;20041;-80
2023/03/03 02:56:31;;;;;;;33.05;17.33;;;;;;;;;;5036937;28;20040;-80
2023/03/03 02:58:57;;;;;;;31.13;15.98;;;;;;;;;;5040500;28;20037;-81
2023/03/03 03:01:23;;;;;;;28.75;15.50;;;;;;;;;;5040367;28;20044;-81
2023/03/03 03:03:53;;;;;;;32.90;17.38;;;;;;;;;;5020590;28;20030;-82
2023/03/03 03:06:21;;;;;;;30.70;16.55;;;;;;;;;;5022500;28;20029;-82
2023/03/03 03:08:47;;;;;;;33.17;16.75;;;;;;;;;;5020849;28;20114;-81
2023/03/03 03:11:13;;;;;;;34.60;16.83;;;;;;;;;;5020636;28;20522;-81
2023/03/03 03:13:39;;;;;;;33.38;17.00;;;;;;;;;;5021175;28;20030;-80
2023/03/03 03:16:05;;;;;;;35.60;16.73;;;;;;;;;;5003372;28;20490;-82
2023/03/03 03:18:30;;;;;;;32.22;16.00;;;;;;;;;;5020991;28;20049;-82
2023/03/03 03:21:05;;;;;;;31.05;15.63;;;;;;;;;;5020637;28;20117;-82
2023/03/03 03:23:31;;;;;;;31.30;15.88;;;;;;;;;;5020646;28;20402;-82
2023/03/03 03:25:57;;;;;;;28.70;15.63;;;;;;;;;;5020397;28;20057;-82
2023/03/03 03:28:26;;;;;;;31.83;16.23;;;;;;;;;;5022085;28;20042;-81
2023/03/03 03:30:53;;;;;;;30.63;16.17;;;;;;;;;;5004012;28;20041;-81
2023/03/03 03:33:20;;;;;;;30.58;15.85;;;;;;;;;;5020429;28;20037;-81
2023/03/03 03:35:47;;;;;;;32.45;16.50;;;;;;;;;;5019971;28;20033;-81
2023/03/03 03:38:14;;;;;;;36.35;17.55;;;;;;;;;;5020444;28;20037;-81
2023/03/03 03:40:41;;;;;;;32.65;17.23;;;;;;;;;;5020286;28;20033;-81
2023/03/03 03:43:06;;;;;;;33.55;16.83;;;;;;;;;;5020140;28;20068;-81
2023/03/03 03:45:32;;;;;;;35.88;17.38;;;;;;;;;;5018775;28;20034;-81
2023/03/03 03:47:59;;;;;;;37.55;17.95;;;;;;;;;;5020204;28;20030;-81
2023/03/03 03:50:25;;;;;;;36.40;17.42;;;;;;;;;;5019223;28;20430;-80
2023/03/03 03:52:51;;;;;;;34.53;16.35;;;;;;;;;;5019038;28;20025;-81
2023/03/03 03:55:16;;;;;;;35.28;16.17;;;;;;;;;;5019408;28;20038;-81
2023/03/03 03:57:42;;;;;;;31.30;16.77;;;;;;;;;;5019890;28;20036;-81
2023/03/03 04:00:10;;;;;;;31.08;16.80;;;;;;;;;;5003203;28;20441;-81
2023/03/03 04:02:39;;;;;;;35.45;16.42;;;;;;;;;;5020001;28;20064;-81
2023/03/03 04:05:06;;;;;;;37.90;17.95;;;;;;;;;;5019452;28;20026;-82
2023/03/03 04:07:32;;;;;;;38.17;18.67;;;;;;;;;;5019053;28;20029;-81
2023/03/03 04:09:58;;;;;;;64.53;27.20;;;;;;;;;;5021175;28;20040;-82
2023/03/03 04:12:24;;;;;;;94.88;36.35;;;;;;;;;;5020538;28;20041;-81
2023/03/03 04:14:50;;;;;;;44.05;20.80;;;;;;;;;;5002592;28;20066;-81
2023/03/03 04:17:20;;;;;;;34.85;18.08;;;;;;;;;;5019313;28;20061;-81
2023/03/03 04:19:46;;;;;;;40.60;20.58;;;;;;;;;;5020953;28;20591;-81
2023/03/03 04:22:14;;;;;;;36.22;18.35;;;;;;;;;;5020992;28;20060;-82
2023/03/03 04:24:40;;;;;;;38.10;18.73;;;;;;;;;;5018521;28;20030;-82
2023/03/03 04:27:08;;;;;;;39.75;20.48;;;;;;;;;;5018888;28;20085;-82
2023/03/03 04:29:34;;;;;;;51.28;23.27;;;;;;;;;;5019481;28;20414;-81
2023/03/03 04:32:00;;;;;;;40.45;19.42;;;;;;;;;;5016287;28;20524;-81
2023/03/03 04:34:26;;;;;;;54.45;23.40;;;;;;;;;;5015040;28;20038;-81
2023/03/03 04:36:52;;;;;;;75.07;28.33;;;;;;;;;;5015921;28;20095;-81
2023/03/03 04:39:18;;;;;;;48.40;21.70;;;;;;;;;;5015790;28;20120;-81
2023/03/03 04:41:44;;;;;;;46.83;21.85;;;;;;;;;;5032025;28;20084;-81
2023/03/03 04:44:09;;;;;;;41.67;20.60;;;;;;;;;;5031897;28;20041;-81
2023/03/03 04:46:35;;;;;;;40.72;19.80;;;;;;;;;;5018308;28;20033;-82
2023/03/03 04:49:00;;;;;;;40.95;19.25;;;;;;;;;;5018802;28;20026;-81
2023/03/03 04:51:26;;;;;;;37.55;18.80;;;;;;;;;;5020532;28;20057;-81
2023/03/03 04:53:52;;;;;;;40.33;20.45;;;;;;;;;;5017882;28;20037;-81
2023/03/03 04:56:18;;;;;;;44.60;21.15;;;;;;;;;;4998325;28;20034;-81
2023/03/03 04:58:44;;;;;;;46.78;22.35;;;;;;;;;;5015308;28;20562;-81
2023/03/03 05:01:13;;;;;;;55.03;26.60;;;;;;;;;;5015747;28;20406;-81
2023/03/03 05:03:39;;;;;;;60.47;27.90;;;;;;;;;;5015292;28;20045;-81
2023/03/03 05:06:06;;;;;;;63.67;27.30;;;;;;;;;;5014531;28;20049;-81
2023/03/03 05:08:32;;;;;;;42.55;21.30;;;;;;;;;;5034931;28;20030;-80
2023/03/03 05:10:58;;;;;;;48.60;22.73;;;;;;;;;;5019714;28;20044;-80
2023/03/03 05:13:26;;;;;;;65.68;26.63;;;;;;;;;;5023024;28;20033;-81
2023/03/03 05:15:54;;;;;;;52.67;23.92;;;;;;;;;;5025886;28;20033;-81
2023/03/03 05:18:20;;;;;;;46.47;21.15;;;;;;;;;;5021629;28;20091;-81
2023/03/03 05:20:46;;;;;;;40.90;20.60;;;;;;;;;;5023289;28;20087;-81
2023/03/03 05:23:12;;;;;;;51.28;23.23;;;;;;;;;;5024923;28;20501;-81
2023/03/03 05:25:40;;;;;;;49.88;22.95;;;;;;;;;;5025691;28;20065;-81
2023/03/03 05:28:05;;;;;;;48.95;22.92;;;;;;;;;;5025276;28;20044;-81
2023/03/03 05:30:31;;;;;;;45.65;22.30;;;;;;;;;;5026796;28;20120;-81
2023/03/03 05:32:58;;;;;;;47.70;21.98;;;;;;;;;;5026512;28;20068;-81
2023/03/03 05:35:24;;;;;;;46.53;21.58;;;;;;;;;;5024163;28;20409;-81
2023/03/03 05:37:49;;;;;;;41.80;21.40;;;;;;;;;;5022516;28;20124;-81
2023/03/03 05:40:15;;;;;;;45.60;21.17;;;;;;;;;;5023102;28;20056;-81
2023/03/03 05:42:41;;;;;;;38.42;19.23;;;;;;;;;;5022815;28;20095;-81
2023/03/03 05:45:07;;;;;;;39.35;19.42;;;;;;;;;;5022111;28;20049;-81
2023/03/03 05:47:32;;;;;;;46.78;21.27;;;;;;;;;;5022930;28;20455;-81
2023/03/03 05:49:57;;;;;;;46.75;21.35;;;;;;;;;;5022810;28;20123;-80
2023/03/03 05:52:23;;;;;;;49.58;22.88;;;;;;;;;;5021481;28;20044;-81
2023/03/03 05:54:49;;;;;;;104.88;36.92;;;;;;;;;;5021784;28;20410;-81
2023/03/03 05:57:15;;;;;;;91.40;34.00;;;;;;;;;;5020841;28;20056;-81
2023/03/03 05:59:40;;;;;;;77.18;29.52;;;;;;;;;;5021708;28;20042;-81
2023/03/03 06:02:06;;;;;;;60.40;24.67;;;;;;;;;;5021626;28;20034;-80
2023/03/03 06:04:32;;;;;;;51.22;23.38;;;;;;;;;;5020669;28;20038;-80
2023/03/03 06:06:57;;;;;;;52.35;22.13;;;;;;;;;;5020899;28;20042;-80
2023/03/03 06:09:23;;;;;;;52.35;23.73;;;;;;;;;;5022376;28;20040;-81
2023/03/03 06:11:48;;;;;;;51.22;23.20;;;;;;;;;;5026046;28;20053;-81
2023/03/03 06:14:14;;;;;;;51.40;24.30;;;;;;;;;;5025483;28;20274;-81
2023/03/03 06:16:39;;;;;;;46.28;21.45;;;;;;;;;;5025326;28;20046;-81
2023/03/03 06:19:05;;;;;;;42.78;21.15;;;;;;;;;;5026109;28;20041;-81
2023/03/03 06:21:30;;;;;;;42.83;21.52;;;;;;;;;;5021229;28;20053;-81
2023/03/03 06:23:56;;;;;;;46.17;20.73;;;;;;;;;;5020768;28;20081;-80
2023/03/03 06:26:22;;;;;;;41.72;19.98;;;;;;;;;;5022858;28;20037;-81
2023/03/03 06:28:49;;;;;;;48.13;20.80;;;;;;;;;;5023077;28;20394;-80
2023/03/03 06:31:14;;;;;;;39.78;19.77;;;;;;;;;;5022780;28;20029;-81
2023/03/03 06:33:41;;;;;;;38.55;19.15;;;;;;;;;;5020731;28;20048;-83
2023/03/03 06:36:07;;;;;;;36.53;17.73;;;;;;;;;;5021650;28;20112;-80
2023/03/03 06:38:32;;;;;;;36.47;18.13;;;;;;;;;;5038389;28;20087;-80
2023/03/03 06:41:00;;;;;;;37.05;18.88;;;;;;;;;;5038172;28;20030;-80
2023/03/03 06:43:26;;;;;;;40.25;20.10;;;;;;;;;;5041488;28;20037;-80
2023/03/03 06:45:51;;;;;;;38.92;19.45;;;;;;;;;;5041847;28;20087;-81
2023/03/03 06:48:17;;;;;;;39.28;18.55;;;;;;;;;;5039612;28;20407;-81
2023/03/03 06:50:42;;;;;;;41.85;20.40;;;;;;;;;;5029088;28;20096;-82
2023/03/03 06:53:13;;;;;;;45.67;20.65;;;;;;;;;;5029366;28;20038;-81
2023/03/03 06:55:39;;;;;;;45.03;20.83;;;;;;;;;;5025733;28;20030;-80
2023/03/03 06:58:13;;;;;;;47.35;20.55;;;;;;;;;;5054279;23;20132;-85
2023/03/03 07:00:42;;;;;;;42.72;20.27;;;;;;;;;;5020654;28;20041;-85
2023/03/03 07:03:15;;;;;;;41.55;20.13;;;;;;;;;;5019970;28;20053;-84
2023/03/03 07:05:41;;;;;;;53.15;26.17;;;;;;;;;;5019768;28;20034;-86
2023/03/03 07:08:16;;;;;;;48.65;24.98;;;;;;;;;;5037904;28;20108;-85
2023/03/03 07:10:43;;;;;;;45.88;22.85;;;;;;;;;;5037677;28;20033;-85
2023/03/03 07:13:26;;;;;;;46.33;22.92;;;;;;;;;;5037571;28;20477;-86
2023/03/03 07:15:53;;;;;;;43.83;21.27;;;;;;;;;;5037437;28;20123;-84
2023/03/03 07:18:38;;;;;;;43.50;20.85;;;;;;;;;;5038712;28;20040;-85
2023/03/03 07:21:15;;;;;;;48.28;20.88;;;;;;;;;;5039148;28;20041;-83
2023/03/03 07:23:42;;;;;;;56.00;24.52;;;;;;;;;;5037712;28;20049;-85
2023/03/03 07:26:12;;;;;;;57.90;24.58;;;;;;;;;;5037383;28;20052;-83
2023/03/03 07:28:41;;;;;;;50.63;22.63;;;;;;;;;;5037730;28;20037;-85
2023/03/03 07:31:40;;;;;;;45.47;21.55;;;;;;;;;;5034980;28;20374;-85
2023/03/03 07:34:20;;;;;;;53.08;22.00;;;;;;;;;;5033792;28;20123;-85
2023/03/03 07:36:47;;;;;;;49.20;21.58;;;;;;;;;;5032433;28;20040;-83
2023/03/03 07:39:34;;;;;;;54.72;22.63;;;;;;;;;;5034365;28;20133;-84
2023/03/03 07:42:32;;;;;;;51.28;24.45;;;;;;;;;;5032832;28;20083;-84
2023/03/03 07:45:28;;;;;;;54.72;25.77;;;;;;;;;;5025370;28;20034;-85
2023/03/03 07:48:23;;;;;;;55.75;25.00;;;;;;;;;;5032171;28;20038;-85
2023/03/03 07:50:48;;;;;;;54.60;23.58;;;;;;;;;;5030981;28;20046;-83
2023/03/03 07:53:25;;;;;;;54.08;22.80;;;;;;;;;;5041316;28;20029;-84
2023/03/03 07:55:50;;;;;;;53.22;22.88;;;;;;;;;;5037523;28;20505;-85
2023/03/03 07:58:37;;;;;;;50.85;22.88;;;;;;;;;;5033889;28;20037;-85
2023/03/03 08:01:30;;;;;;;49.35;23.40;;;;;;;;;;5034073;28;20033;-85
2023/03/03 08:03:56;;;;;;;49.78;23.15;;;;;;;;;;5033136;28;20033;-81
2023/03/03 08:06:39;;;;;;;50.40;22.35;;;;;;;;;;5035513;28;20033;-86
2023/03/03 08:09:08;;;;;;;48.58;23.17;;;;;;;;;;5033684;28;20062;-84
2023/03/03 08:11:34;;;;;;;48.42;22.30;;;;;;;;;;5035424;28;20069;-85
2023/03/03 08:14:00;;;;;;;43.03;20.25;;;;;;;;;;5035101;28;20114;-84
2023/03/03 08:16:36;;;;;;;48.17;21.58;;;;;;;;;;5035340;28;20433;-86
2023/03/03 08:19:04;;;;;;;44.53;19.85;;;;;;;;;;5034151;28;20486;-85
2023/03/03 08:21:31;;;;;;;41.42;20.33;;;;;;;;;;5036380;28;20561;-82
2023/03/03 08:23:57;;;;;;;42.30;19.75;;;;;;;;;;5036037;28;20044;-85
2023/03/03 08:26:24;;;;;;;43.60;21.00;;;;;;;;;;5036035;28;20033;-85
2023/03/03 08:28:50;;;;;;;41.20;19.60;;;;;;;;;;5034487;28;20075;-82
2023/03/03 08:31:16;;;;;;;44.38;21.00;;;;;;;;;;5034899;28;20463;-85
2023/03/03 08:33:43;;;;;;;47.80;21.52;;;;;;;;;;5037046;28;20577;-87
2023/03/03 08:36:10;;;;;;;46.20;22.65;;;;;;;;;;5032261;28;20041;-82
2023/03/03 08:38:36;;;;;;;48.10;23.23;;;;;;;;;;5033242;28;20175;-85
2023/03/03 08:41:02;;;;;;;49.85;22.73;;;;;;;;;;5032010;28;20053;-86
2023/03/03 08:43:28;;;;;;;48.08;21.70;;;;;;;;;;5034551;28;20030;-83
2023/03/03 08:45:58;;;;;;;50.58;23.02;;;;;;;;;;5032779;28;20040;-87
2023/03/03 08:48:24;;;;;;;45.42;22.13;;;;;;;;;;5033663;28;20065;-85
2023/03/03 08:50:50;;;;;;;54.22;23.83;;;;;;;;;;5034330;28;20044;-84
2023/03/03 08:53:16;;;;;;;49.78;23.23;;;;;;;;;;5032449;28;20037;-84
2023/03/03 08:55:42;;;;;;;48.53;22.65;;;;;;;;;;5033561;28;20076;-84
2023/03/03 08:58:08;;;;;;;46.53;21.67;;;;;;;;;;5032206;28;20405;-85
2023/03/03 09:00:34;;;;;;;45.50;21.30;;;;;;;;;;5032695;28;20137;-85
2023/03/03 09:02:59;;;;;;;51.00;21.77;;;;;;;;;;5036973;28;20037;-83
2023/03/03 09:05:25;;;;;;;46.28;21.77;;;;;;;;;;5034208;28;20033;-84
2023/03/03 09:07:52;;;;;;;48.78;22.05;;;;;;;;;;5033139;28;20045;-84
2023/03/03 09:10:27;;;;;;;54.20;22.42;;;;;;;;;;5041256;28;20124;-81
2023/03/03 09:12:57;;;;;;;50.35;22.23;;;;;;;;;;5037146;28;20496;-84
2023/03/03 09:15:24;;;;;;;45.97;21.27;;;;;;;;;;5037643;28;20045;-85
2023/03/03 09:17:50;;;;;;;48.55;22.15;;;;;;;;;;5034818;28;20029;-85
2023/03/03 09:20:38;;;;;;;56.88;26.05;;;;;;;;;;5034293;28;20555;-83
2023/03/03 09:23:29;;;;;;;61.30;27.05;;;;;;;;;;5033470;28;20037;-87
2023/03/03 09:25:56;;;;;;;57.67;26.58;;;;;;;;;;5036664;28;20478;-85
2023/03/03 09:28:24;;;;;;;49.83;25.10;;;;;;;;;;5037589;28;20041;-84
2023/03/03 09:30:51;;;;;;;61.65;27.73;;;;;;;;;;5036504;28;20486;-84
2023/03/03 09:33:42;;;;;;;47.72;22.63;;;;;;;;;;5036659;28;20056;-85
2023/03/03 09:36:19;;;;;;;50.22;22.40;;;;;;;;;;5038191;28;20046;-85
2023/03/03 09:38:45;;;;;;;47.10;22.70;;;;;;;;;;5035350;28;20033;-83
2023/03/03 09:41:38;;;;;;;54.35;22.60;;;;;;;;;;5033041;28;20449;-87
2023/03/03 09:44:35;;;;;;;45.30;21.30;;;;;;;;;;5034343;28;20037;-82
2023/03/03 09:47:32;;;;;;;47.80;22.17;;;;;;;;;;5034629;28;20045;-84
2023/03/03 09:49:57;;;;;;;52.55;22.95;;;;;;;;;;5033060;28;20588;-86
2023/03/03 09:52:38;;;;;;;45.50;21.40;;;;;;;;;;5032988;28;20049;-85
2023/03/03 09:55:09;;;;;;;52.95;22.08;;;;;;;;;;5033027;28;20033;-84
2023/03/03 09:57:49;;;;;;;53.28;22.88;;;;;;;;;;5032864;28;20121;-86
2023/03/03 10:00:15;;;;;;;65.95;29.83;;;;;;;;;;5036435;28;20044;-84
2023/03/03 10:03:08;;;;;;;58.72;26.17;;;;;;;;;;5035807;28;20029;-84
2023/03/03 10:06:00;;;;;;;65.57;29.80;;;;;;;;;;5015797;28;20124;-85
2023/03/03 10:08:53;;;;;;;46.50;23.58;;;;;;;;;;5035179;28;20048;-84
2023/03/03 10:11:22;;;;;;;46.80;22.92;;;;;;;;;;5039902;28;20044;-86
2023/03/03 10:13:51;;;;;;;51.53;23.67;;;;;;;;;;5036868;28;20450;-86
2023/03/03 10:16:36;;;;;;;45.10;22.02;;;;;;;;;;5035356;28;20041;-84
2023/03/03 10:19:08;;;;;;;49.00;22.35;;;;;;;;;;5034391;28;20103;-84
2023/03/03 10:21:59;;;;;;;49.60;24.40;;;;;;;;;;5037827;28;20045;-83
2023/03/03 10:24:30;;;;;;;59.50;26.98;;;;;;;;;;5034425;28;20497;-85
2023/03/03 10:27:25;;;;;;;54.50;23.92;;;;;;;;;;5044191;28;20088;-85
2023/03/03 10:30:14;;;;;;;63.80;27.20;;;;;;;;;;5022951;28;20132;-84
2023/03/03 10:32:53;;;;;;;54.85;25.05;;;;;;;;;;5035669;28;20049;-84
2023/03/03 10:35:34;;;;;;;53.33;23.52;;;;;;;;;;5038159;28;20037;-85
2023/03/03 10:38:32;;;;;;;50.35;23.15;;;;;;;;;;5038527;28;20042;-83
2023/03/03 10:41:09;;;;;;;51.90;23.40;;;;;;;;;;5033791;28;20053;-84
2023/03/03 10:43:56;;;;;;;45.83;22.80;;;;;;;;;;5037647;28;20025;-84
2023/03/03 10:46:25;;;;;;;53.22;23.85;;;;;;;;;;5037808;28;20041;-84
2023/03/03 10:49:35;;;;;;;58.17;26.48;;;;;;;;;;5037505;28;20038;-85
2023/03/03 10:52:38;;;;;;;51.08;22.67;;;;;;;;;;5034832;28;20122;-85
2023/03/03 10:55:15;;;;;;;45.95;22.67;;;;;;;;;;5035813;28;20422;-84
2023/03/03 10:57:46;;;;;;;48.80;22.92;;;;;;;;;;5037651;28;20045;-84
2023/03/03 11:00:36;;;;;;;48.53;22.52;;;;;;;;;;5037705;28;20441;-85
2023/03/03 11:03:20;;;;;;;51.83;23.85;;;;;;;;;;5037536;28;20051;-84
2023/03/03 11:06:07;;;;;;;52.38;22.45;;;;;;;;;;5036995;28;20055;-85
2023/03/03 11:08:53;;;;;;;53.47;23.42;;;;;;;;;;5035884;28;20051;-86
2023/03/03 11:11:34;;;;;;;56.45;24.25;;;;;;;;;;5036120;28;20033;-85
2023/03/03 11:14:06;;;;;;;54.92;24.95;;;;;;;;;;5036847;28;20453;-86
2023/03/03 11:16:40;;;;;;;56.60;27.20;;;;;;;;;;5035577;28;20037;-85
2023/03/03 11:19:28;;;;;;;58.78;25.70;;;;;;;;;;5033801;28;20037;-86
2023/03/03 11:22:44;;;;;;;55.13;27.58;;;;;;;;;;5035466;28;20029;-86
2023/03/03 11:25:25;;;;;;;48.15;23.55;;;;;;;;;;5013136;28;20037;-87
2023/03/03 11:28:07;;;;;;;55.97;27.02;;;;;;;;;;5013477;28;20173;-86
2023/03/03 11:30:58;;;;;;;60.88;27.70;;;;;;;;;;5028052;28;20049;-85
2023/03/03 11:33:39;;;;;;;52.13;23.75;;;;;;;;;;5036050;28;20079;-86
2023/03/03 11:36:12;;;;;;;54.17;25.15;;;;;;;;;;5033354;28;20041;-86
2023/03/03 11:38:56;;;;;;;51.95;25.00;;;;;;;;;;5034259;28;20044;-86
2023/03/03 11:41:30;;;;;;;55.33;25.92;;;;;;;;;;5033244;28;20053;-85
2023/03/03 11:44:04;;;;;;;51.22;24.30;;;;;;;;;;5031038;28;20482;-83
2023/03/03 11:46:36;;;;;;;57.38;24.38;;;;;;;;;;5036325;28;20056;-83
2023/03/03 11:49:07;;;;;;;54.50;24.33;;;;;;;;;;5036610;28;20040;-83
2023/03/03 11:51:46;;;;;;;56.13;24.20;;;;;;;;;;5036925;28;20120;-85
2023/03/03 11:54:44;;;;;;;51.80;24.45;;;;;;;;;;5036260;28;20029;-86
2023/03/03 11:57:19;;;;;;;56.10;26.10;;;;;;;;;;5029068;28;20549;-84
2023/03/03 11:59:54;;;;;;;55.60;24.70;;;;;;;;;;5036380;28;20037;-85
2023/03/03 12:02:25;;;;;;;52.47;23.77;;;;;;;;;;5036710;28;20029;-85
2023/03/03 12:04:58;;;;;;;49.13;23.55;;;;;;;;;;5034973;28;20033;-84
2023/03/03 12:07:54;;;;;;;51.45;24.17;;;;;;;;;;5036617;28;20049;-85
2023/03/03 12:10:25;;;;;;;52.33;24.17;;;;;;;;;;5034570;28;20511;-85
2023/03/03 12:13:02;;;;;;;54.38;24.80;;;;;;;;;;5037546;28;20121;-83
2023/03/03 12:16:00;;;;;;;60.30;28.48;;;;;;;;;;5037113;28;20486;-86
2023/03/03 12:18:55;;;;;;;62.67;29.85;;;;;;;;;;5036611;28;20034;-85
2023/03/03 12:21:54;;;;;;;51.70;24.63;;;;;;;;;;5035562;28;20138;-86
2023/03/03 12:24:26;;;;;;;49.78;23.58;;;;;;;;;;5034875;28;20493;-84
2023/03/03 12:27:30;;;;;;;49.13;23.67;;;;;;;;;;5035249;28;20519;-83
2023/03/03 12:30:05;;;;;;;48.25;23.20;;;;;;;;;;4943605;28;20143;-84
2023/03/03 12:32:48;;;;;;;46.90;22.88;;;;;;;;;;5030909;28;20409;-84
2023/03/03 12:35:23;;;;;;;46.75;23.00;;;;;;;;;;5035375;28;20551;-86
2023/03/03 12:37:54;;;;;;;51.10;23.73;;;;;;;;;;5036996;28;20045;-85
2023/03/03 12:40:25;;;;;;;48.53;24.98;;;;;;;;;;5037627;28;20044;-83
2023/03/03 12:43:25;;;;;;;59.00;25.42;;;;;;;;;;5038743;28;20033;-84
2023/03/03 12:46:05;;;;;;;57.13;22.90;;;;;;;;;;5037497;28;20040;-84
2023/03/03 12:48:42;;;;;;;53.72;24.25;;;;;;;;;;5035626;28;20082;-83
2023/03/03 12:51:17;;;;;;;51.42;23.83;;;;;;;;;;5033958;28;20037;-83
2023/03/03 12:54:04;;;;;;;51.92;23.27;;;;;;;;;;5030608;28;20029;-85
2023/03/03 12:56:43;;;;;;;47.67;22.60;;;;;;;;;;5034808;28;20045;-83
2023/03/03 12:59:56;;;;;;;50.55;23.65;;;;;;;;;;5069994;23;20049;-83
2023/03/03 13:03:01;;;;;;;51.38;22.85;;;;;;;;;;5055183;28;20078;-83
2023/03/03 13:05:26;;;;;;;;;;;;;;;;;;5055140;28;20061;-79
2023/03/03 13:08:19;;;;;;;46.47;22.35;;;;;;;;;;5054987;28;19963;-83
2023/03/03 13:10:51;;;;;;;54.42;22.60;;;;;;;;;;5052696;28;20029;-83
2023/03/03 13:13:19;;;;;;;55.50;25.00;;;;;;;;;;5056115;28;20029;-83
2023/03/03 13:15:59;;;;;;;52.42;25.40;;;;;;;;;;5054442;28;20046;-83
2023/03/03 13:18:29;;;;;;;53.88;24.60;;;;;;;;;;5054473;28;20045;-83
2023/03/03 13:21:05;;;;;;;52.78;24.30;;;;;;;;;;5045001;28;20180;-83
2023/03/03 13:23:33;;;;;;;50.65;23.67;;;;;;;;;;5041969;28;20541;-83
2023/03/03 13:26:21;;;;;;;49.75;23.88;;;;;;;;;;5024072;28;20040;-84
2023/03/03 13:28:55;;;;;;;48.13;23.35;;;;;;;;;;5042136;28;20033;-83
2023/03/03 13:31:26;;;;;;;50.35;23.55;;;;;;;;;;5041940;28;20409;-83
2023/03/03 13:33:57;;;;;;;50.03;24.70;;;;;;;;;;5043462;28;20068;-83
2023/03/03 13:36:37;;;;;;;51.42;24.92;;;;;;;;;;5046533;28;20040;-83
2023/03/03 13:39:31;;;;;;;49.58;23.70;;;;;;;;;;5045825;28;20033;-83
2023/03/03 13:42:13;;;;;;;52.58;24.25;;;;;;;;;;5046225;28;20053;-84
2023/03/03 13:44:41;;;;;;;50.22;23.70;;;;;;;;;;5045829;28;20052;-84
2023/03/03 13:47:16;;;;;;;47.85;23.42;;;;;;;;;;5044724;28;20038;-82
2023/03/03 13:49:45;;;;;;;49.00;23.67;;;;;;;;;;5044995;28;20093;-83
2023/03/03 13:52:14;;;;;;;59.90;25.38;;;;;;;;;;5045129;28;20041;-82
2023/03/03 13:54:48;;;;;;;51.78;24.67;;;;;;;;;;5043247;28;20044;-83
2023/03/03 13:57:29;;;;;;;55.38;24.95;;;;;;;;;;5042811;28;20045;-83
2023/03/03 14:00:21;;;;;;;53.40;23.90;;;;;;;;;;5044024;28;20497;-83
2023/03/03 14:03:11;;;;;;;51.25;24.65;;;;;;;;;;5043784;28;20038;-82
2023/03/03 14:05:39;;;;;;;48.80;23.30;;;;;;;;;;5045338;28;20645;-81
2023/03/03 14:08:38;;;;;;;55.72;25.52;;;;;;;;;;5048515;28;20109;-84
2023/03/03 14:11:13;;;;;;;53.28;24.65;;;;;;;;;;5045131;28;20037;-82
2023/03/03 14:13:51;;;;;;;54.05;24.73;;;;;;;;;;5045523;28;20054;-82
2023/03/03 14:16:28;;;;;;;54.30;24.63;;;;;;;;;;5045116;28;20037;-81
2023/03/03 14:19:00;;;;;;;58.15;26.25;;;;;;;;;;5043958;28;20049;-82
2023/03/03 14:21:41;;;;;;;55.00;24.90;;;;;;;;;;5046015;28;20030;-81
2023/03/03 14:24:15;;;;;;;54.35;23.42;;;;;;;;;;5044702;28;20033;-82
2023/03/03 14:26:52;;;;;;;54.42;24.27;;;;;;;;;;5043834;28;20034;-82
2023/03/03 14:29:26;;;;;;;50.67;23.90;;;;;;;;;;5044610;28;20056;-81
2023/03/03 14:31:53;;;;;;;46.65;24.20;;;;;;;;;;5041510;28;20121;-82
2023/03/03 14:34:21;;;;;;;50.83;23.83;;;;;;;;;;5042661;28;20087;-82
2023/03/03 14:36:48;;;;;;;51.72;24.25;;;;;;;;;;5043044;28;20029;-81
2023/03/03 14:39:34;;;;;;;52.60;26.00;;;;;;;;;;5041281;28;20034;-82
2023/03/03 14:42:47;;;;;;;50.08;24.38;;;;;;;;;;5042976;28;20030;-81
2023/03/03 14:45:35;;;;;;;50.00;24.17;;;;;;;;;;5018955;28;20065;-83
2023/03/03 14:48:16;;;;;;;48.60;24.63;;;;;;;;;;5043384;28;20056;-82
2023/03/03 14:50:49;;;;;;;51.92;25.23;;;;;;;;;;5043770;28;20175;-82
2023/03/03 14:53:18;;;;;;;53.20;26.08;;;;;;;;;;5043669;28;20033;-83